Time;durP1;ratioP1;P1;durP2;ratioP2;P2;SDS_P1;SDS_P2;PMS_P1;PMS_P2;Temp;Humidity;BMP_temperature;BMP_pressure;BME280_temperature;BME280_humidity;BME280_pressure;Samples;Min_cycle;Max_cycle;Signal;HPM_P1;HPM_P2
2024/01/10 00:01:54;;;;;;;36.53;13.97;;;;;;;-3.98;100.00;96993.44;5038622;28;20216;-67
2024/01/10 00:04:20;;;;;;;34.83;13.87;;;;;;;-3.97;100.00;96992.50;5037555;28;20666;-67
2024/01/10 00:06:47;;;;;;;35.63;14.30;;;;;;;-4.03;100.00;96990.25;5037674;28;20239;-67
2024/01/10 00:09:13;;;;;;;35.27;14.17;;;;;;;-4.11;100.00;96994.91;5038734;28;20201;-67
2024/01/10 00:11:41;;;;;;;32.80;13.33;;;;;;;-3.97;100.00;96990.81;5038010;28;20200;-67
2024/01/10 00:14:09;;;;;;;28.90;11.87;;;;;;;-4.00;100.00;96988.34;5037991;28;20212;-67
2024/01/10 00:16:35;;;;;;;41.17;14.60;;;;;;;-3.98;100.00;96999.41;5037964;28;20232;-67
2024/01/10 00:19:02;;;;;;;35.30;13.43;;;;;;;-4.00;100.00;96984.94;5038251;28;20212;-67
2024/01/10 00:21:29;;;;;;;36.20;14.03;;;;;;;-3.94;100.00;96988.06;5038117;28;20905;-67
2024/01/10 00:23:55;;;;;;;40.70;15.40;;;;;;;-4.01;100.00;96985.84;5037490;28;20632;-67
2024/01/10 00:26:22;;;;;;;34.87;14.27;;;;;;;-4.03;100.00;96985.09;5038185;28;20217;-67
2024/01/10 00:28:50;;;;;;;32.10;13.63;;;;;;;-3.83;100.00;96988.41;5037135;28;20201;-67
2024/01/10 00:31:17;;;;;;;39.13;14.47;;;;;;;-3.94;100.00;96989.81;5038747;28;20201;-67
2024/01/10 00:33:44;;;;;;;36.70;14.33;;;;;;;-4.04;100.00;96986.00;5036850;28;20205;-67
2024/01/10 00:36:10;;;;;;;36.20;14.57;;;;;;;-3.97;100.00;96984.78;5037994;28;20243;-67
2024/01/10 00:38:37;;;;;;;35.73;13.73;;;;;;;-3.90;100.00;96987.00;5037090;28;20212;-67
2024/01/10 00:41:04;;;;;;;34.90;13.87;;;;;;;-3.88;100.00;96989.50;5037711;28;20209;-67
2024/01/10 00:43:30;;;;;;;33.93;12.73;;;;;;;-3.94;100.00;96979.53;5038213;28;20205;-67
2024/01/10 00:45:58;;;;;;;35.37;14.67;;;;;;;-3.86;100.00;96974.84;5036740;28;20231;-67
2024/01/10 00:48:24;;;;;;;39.57;14.63;;;;;;;-3.97;100.00;96980.50;5036521;28;20216;-67
2024/01/10 00:50:51;;;;;;;36.53;14.43;;;;;;;-3.86;100.00;96973.09;5037714;28;20602;-67
2024/01/10 00:53:17;;;;;;;38.77;15.17;;;;;;;-3.86;100.00;96967.94;5037388;28;20204;-67
2024/01/10 00:55:44;;;;;;;34.67;13.73;;;;;;;-3.86;100.00;96972.25;5036252;28;20637;-67
2024/01/10 00:58:10;;;;;;;35.37;14.07;;;;;;;-3.86;100.00;96975.66;5037812;28;20221;-67
2024/01/10 01:00:37;;;;;;;32.17;14.10;;;;;;;-3.90;100.00;96975.91;5036852;28;20215;-67
2024/01/10 01:03:07;;;;;;;35.07;13.73;;;;;;;-3.91;100.00;96975.03;5036958;28;20209;-67
2024/01/10 01:05:34;;;;;;;37.70;14.63;;;;;;;-4.00;100.00;96974.66;5036708;28;20225;-67
2024/01/10 01:08:00;;;;;;;39.00;13.80;;;;;;;-4.03;100.00;96975.63;5037253;28;20201;-67
2024/01/10 01:10:26;;;;;;;38.77;13.40;;;;;;;-4.01;100.00;96972.97;5037150;28;20212;-67
2024/01/10 01:12:53;;;;;;;32.53;12.13;;;;;;;-4.00;100.00;96979.81;5037538;28;20205;-67
2024/01/10 01:15:19;;;;;;;34.30;12.40;;;;;;;-3.98;100.00;96985.72;5036613;28;20232;-67
2024/01/10 01:17:46;;;;;;;37.00;12.77;;;;;;;-4.10;100.00;96983.72;5036021;28;21037;-67
2024/01/10 01:20:14;;;;;;;35.73;12.93;;;;;;;-3.90;100.00;96981.88;5037266;28;20208;-67
2024/01/10 01:22:40;;;;;;;33.70;12.90;;;;;;;-4.03;100.00;96982.53;5036324;28;20216;-67
2024/01/10 01:25:08;;;;;;;33.43;12.57;;;;;;;-4.01;100.00;96973.84;5036153;28;20225;-67
2024/01/10 01:27:35;;;;;;;26.23;10.63;;;;;;;-4.10;100.00;96976.00;5036703;28;20219;-67
2024/01/10 01:30:01;;;;;;;26.40;12.03;;;;;;;-3.94;100.00;96984.66;5037069;28;20205;-67
2024/01/10 01:32:28;;;;;;;32.23;12.20;;;;;;;-3.98;100.00;96985.72;5036925;28;20266;-67
2024/01/10 01:34:54;;;;;;;31.17;11.93;;;;;;;-3.94;100.00;96984.66;5035900;28;20224;-67
2024/01/10 01:37:22;;;;;;;27.33;11.07;;;;;;;-3.68;100.00;96982.50;5035606;28;20721;-67
2024/01/10 01:39:49;;;;;;;25.23;10.23;;;;;;;-3.83;100.00;96983.25;5036043;28;20240;-67
2024/01/10 01:42:16;;;;;;;29.73;12.63;;;;;;;-3.73;100.00;96981.88;5037250;28;20216;-67
2024/01/10 01:44:42;;;;;;;27.03;11.27;;;;;;;-3.78;100.00;96983.03;5036217;28;20216;-67
2024/01/10 01:47:09;;;;;;;27.50;10.27;;;;;;;-3.77;100.00;96982.94;5035649;28;20208;-67
2024/01/10 01:49:36;;;;;;;31.67;12.17;;;;;;;-3.76;100.00;96976.06;5035869;28;20221;-67
2024/01/10 01:52:03;;;;;;;28.27;10.80;;;;;;;-3.66;100.00;96977.31;5036546;28;20220;-67
2024/01/10 01:54:33;;;;;;;28.07;11.30;;;;;;;-3.56;100.00;96981.94;5036195;28;20207;-67
2024/01/10 01:57:00;;;;;;;26.20;11.80;;;;;;;-3.68;100.00;96977.34;5035854;28;20247;-67
2024/01/10 01:59:26;;;;;;;30.30;10.13;;;;;;;-3.70;100.00;96971.47;5036824;28;20240;-67
2024/01/10 02:01:56;;;;;;;31.03;11.23;;;;;;;-3.63;100.00;96975.38;5036083;28;20221;-67
2024/01/10 02:04:23;;;;;;;28.73;10.70;;;;;;;-3.69;100.00;96975.72;5035616;28;20252;-67
2024/01/10 02:06:50;;;;;;;26.77;10.13;;;;;;;-3.73;100.00;96969.00;5035350;28;20218;-67
2024/01/10 02:09:17;;;;;;;29.97;10.50;;;;;;;-3.79;100.00;96971.91;5036478;28;20205;-67
2024/01/10 02:11:44;;;;;;;26.63;11.47;;;;;;;-3.62;100.00;96971.91;5036054;28;20206;-67
2024/01/10 02:14:11;;;;;;;33.33;11.73;;;;;;;-3.58;100.00;96978.56;5035484;28;20202;-67
2024/01/10 02:16:38;;;;;;;27.53;11.33;;;;;;;-3.57;100.00;96975.91;5035617;28;20225;-67
2024/01/10 02:19:19;;;;;;;29.50;11.43;;;;;;;-3.32;100.00;96976.41;5035647;28;20205;-67
2024/01/10 02:21:45;;;;;;;30.20;10.70;;;;;;;-3.61;100.00;96979.56;5036144;28;20212;-67
2024/01/10 02:24:12;;;;;;;26.93;10.90;;;;;;;-3.75;100.00;96973.41;5035765;28;20212;-67
2024/01/10 02:26:40;;;;;;;26.70;10.23;;;;;;;-3.60;100.00;96978.66;5035915;28;20224;-67
2024/01/10 02:29:06;;;;;;;31.10;11.03;;;;;;;-3.74;100.00;96976.81;5035941;28;21180;-67
2024/01/10 02:31:33;;;;;;;27.17;9.93;;;;;;;-3.65;100.00;96973.78;5036087;28;20992;-67
2024/01/10 02:33:58;;;;;;;30.80;11.60;;;;;;;-3.52;100.00;96973.13;5035298;28;20201;-67
2024/01/10 02:36:25;;;;;;;21.57;8.47;;;;;;;-3.46;100.00;96975.41;5035690;28;20713;-67
2024/01/10 02:38:52;;;;;;;26.20;9.90;;;;;;;-3.62;100.00;96977.06;5035630;28;20577;-67
2024/01/10 02:41:18;;;;;;;25.27;10.53;;;;;;;-3.77;100.00;96967.50;5035672;28;20201;-67
2024/01/10 02:43:46;;;;;;;25.70;9.70;;;;;;;-3.67;100.00;96967.91;5035154;28;20201;-67
2024/01/10 02:46:12;;;;;;;23.90;9.93;;;;;;;-3.65;100.00;96969.50;5035341;28;20242;-67
2024/01/10 02:48:39;;;;;;;24.93;8.80;;;;;;;-3.62;100.00;96965.00;5035268;28;20197;-67
2024/01/10 02:51:06;;;;;;;25.03;9.97;;;;;;;-3.63;100.00;96960.78;5035799;28;20208;-67
2024/01/10 02:53:32;;;;;;;29.00;10.43;;;;;;;-3.54;100.00;96964.63;5036033;28;20216;-67
2024/01/10 02:55:59;;;;;;;23.23;8.77;;;;;;;-3.40;100.00;96965.63;5034565;28;20294;-67
2024/01/10 02:58:26;;;;;;;29.70;9.67;;;;;;;-3.60;100.00;96970.09;5035265;28;20237;-67
2024/01/10 03:00:54;;;;;;;30.33;10.23;;;;;;;-3.54;100.00;96960.34;5035439;28;20267;-67
2024/01/10 03:03:20;;;;;;;23.10;9.37;;;;;;;-3.65;100.00;96958.34;5039297;28;20212;-67
2024/01/10 03:05:47;;;;;;;21.00;9.17;;;;;;;-3.61;100.00;96968.44;5038531;28;20710;-67
2024/01/10 03:08:13;;;;;;;24.67;9.93;;;;;;;-3.76;100.00;96969.16;5039065;28;20198;-67
2024/01/10 03:10:40;;;;;;;24.23;9.50;;;;;;;-3.74;100.00;96958.78;5039829;28;20210;-67
2024/01/10 03:13:06;;;;;;;23.27;10.13;;;;;;;-3.69;100.00;96960.25;5039600;28;20208;-67
2024/01/10 03:15:33;;;;;;;24.33;9.30;;;;;;;-3.67;100.00;96955.84;5038889;28;20229;-67
2024/01/10 03:18:01;;;;;;;29.63;10.43;;;;;;;-3.44;100.00;96955.56;5038788;28;20220;-67
2024/01/10 03:20:27;;;;;;;24.97;9.47;;;;;;;-3.81;100.00;96954.88;5038999;28;20843;-67
2024/01/10 03:22:54;;;;;;;23.80;10.23;;;;;;;-3.89;100.00;96949.25;5038828;28;20244;-67
2024/01/10 03:25:20;;;;;;;25.50;9.57;;;;;;;-3.69;100.00;96951.69;5038580;28;20221;-67
2024/01/10 03:27:47;;;;;;;27.43;10.27;;;;;;;-3.69;100.00;96947.38;5039008;28;20220;-67
2024/01/10 03:30:14;;;;;;;25.37;10.10;;;;;;;-3.56;100.00;96951.84;5039021;28;20205;-67
2024/01/10 03:32:40;;;;;;;27.13;10.13;;;;;;;-3.52;100.00;96947.38;5038884;28;20212;-67
2024/01/10 03:35:09;;;;;;;28.20;11.23;;;;;;;-3.22;100.00;96951.84;5037953;28;20650;-67
2024/01/10 03:37:36;;;;;;;23.00;9.63;;;;;;;-3.40;100.00;96951.91;5038772;28;20234;-67
2024/01/10 03:40:02;;;;;;;31.10;11.43;;;;;;;-3.35;100.00;96950.75;5038671;28;20198;-67
2024/01/10 03:42:29;;;;;;;26.73;10.30;;;;;;;-3.23;100.00;96954.47;5038587;28;20734;-67
2024/01/10 03:44:56;;;;;;;26.33;10.43;;;;;;;-3.28;100.00;96949.56;5038135;28;20221;-67
2024/01/10 03:47:22;;;;;;;23.10;9.03;;;;;;;-3.26;100.00;96955.47;5038298;28;20195;-67
2024/01/10 03:49:48;;;;;;;23.73;9.07;;;;;;;-3.28;100.00;96952.13;5038085;28;20208;-67
2024/01/10 03:52:16;;;;;;;31.00;11.57;;;;;;;-3.20;100.00;96950.00;5038610;28;20202;-67
2024/01/10 03:54:43;;;;;;;33.20;9.70;;;;;;;-3.36;100.00;96949.13;5037792;28;20201;-67
2024/01/10 03:57:09;;;;;;;28.73;10.20;;;;;;;-3.21;100.00;96948.31;5038158;28;20229;-67
2024/01/10 03:59:36;;;;;;;22.33;9.73;;;;;;;-3.19;100.00;96950.84;5037001;28;20212;-67
2024/01/10 04:02:02;;;;;;;27.60;8.47;;;;;;;-3.13;100.00;96943.63;5038491;28;20213;-67
2024/01/10 04:04:29;;;;;;;30.47;10.83;;;;;;;-3.11;100.00;96948.72;5037806;28;20244;-67
2024/01/10 04:06:55;;;;;;;24.10;9.33;;;;;;;-3.09;100.00;96952.88;5038123;28;20237;-67
2024/01/10 04:09:23;;;;;;;23.13;8.97;;;;;;;-3.01;100.00;96953.31;5038335;28;20201;-67
2024/01/10 04:11:49;;;;;;;24.77;9.17;;;;;;;-3.24;100.00;96948.50;5037451;28;20210;-67
2024/01/10 04:14:16;;;;;;;24.47;9.53;;;;;;;-3.19;100.00;96946.50;5037334;28;20211;-67
2024/01/10 04:16:42;;;;;;;25.63;8.60;;;;;;;-3.10;100.00;96953.78;5038106;28;20225;-67
2024/01/10 04:19:09;;;;;;;21.07;9.57;;;;;;;-3.11;100.00;96951.28;5037183;28;20268;-67
2024/01/10 04:21:35;;;;;;;26.07;10.53;;;;;;;-3.06;100.00;96952.72;5038249;28;21451;-67
2024/01/10 04:24:02;;;;;;;28.00;9.77;;;;;;;-3.03;100.00;96956.88;5037863;28;20208;-67
2024/01/10 04:26:30;;;;;;;27.40;10.37;;;;;;;-2.94;100.00;96957.22;5038343;28;20223;-67
2024/01/10 04:28:56;;;;;;;23.77;9.50;;;;;;;-3.01;100.00;96953.31;5037448;28;20783;-67
2024/01/10 04:31:23;;;;;;;23.87;9.23;;;;;;;-3.13;100.00;96947.94;5039259;28;20679;-67
2024/01/10 04:33:49;;;;;;;21.60;9.73;;;;;;;-3.10;100.00;96952.97;5037750;28;20212;-67
2024/01/10 04:36:15;;;;;;;28.77;9.57;;;;;;;-3.06;100.00;96957.03;5037914;28;20225;-67
2024/01/10 04:38:42;;;;;;;26.67;9.73;;;;;;;-3.03;100.00;96956.88;5038564;28;20224;-67
2024/01/10 04:41:08;;;;;;;28.67;10.00;;;;;;;-2.98;100.00;96953.13;5037610;28;20212;-67
2024/01/10 04:43:36;;;;;;;18.27;8.63;;;;;;;-2.84;100.00;96948.09;5037890;28;20222;-67
2024/01/10 04:46:03;;;;;;;20.70;8.27;;;;;;;-2.88;100.00;96951.75;5036956;28;20228;-67
2024/01/10 04:48:29;;;;;;;27.47;9.30;;;;;;;-2.91;100.00;96957.91;5036936;28;20697;-67
2024/01/10 04:50:56;;;;;;;25.47;10.23;;;;;;;-2.89;100.00;96960.41;5036914;28;20212;-67
2024/01/10 04:53:22;;;;;;;23.17;9.47;;;;;;;-3.05;100.00;96958.69;5037269;28;21206;-67
2024/01/10 04:55:49;;;;;;;25.30;9.53;;;;;;;-2.91;100.00;96957.09;5037152;28;20580;-67
2024/01/10 04:58:15;;;;;;;22.07;8.30;;;;;;;-3.00;100.00;96960.13;5037664;28;20591;-67
2024/01/10 05:00:43;;;;;;;28.53;10.17;;;;;;;-2.79;100.00;96954.72;5037057;28;20774;-67
2024/01/10 05:03:09;;;;;;;32.27;10.20;;;;;;;-2.88;100.00;96962.06;5037482;28;21218;-67
2024/01/10 05:05:36;;;;;;;27.87;9.43;;;;;;;-2.85;100.00;96967.06;5036825;28;20608;-67
2024/01/10 05:08:02;;;;;;;24.87;10.67;;;;;;;-2.82;100.00;96959.19;5036483;28;20200;-67
2024/01/10 05:10:29;;;;;;;26.53;9.20;;;;;;;-2.80;100.00;96959.91;5037997;28;21172;-67
2024/01/10 05:12:55;;;;;;;32.77;10.60;;;;;;;-2.98;100.00;96956.56;5036759;28;20206;-67
2024/01/10 05:15:21;;;;;;;26.97;10.30;;;;;;;-3.09;100.00;96957.19;5036476;28;20221;-67
2024/01/10 05:17:49;;;;;;;24.27;10.70;;;;;;;-3.02;100.00;96956.78;5036883;28;20813;-67
2024/01/10 05:20:16;;;;;;;21.63;9.40;;;;;;;-3.15;100.00;96958.34;5036666;28;20201;-67
2024/01/10 05:22:43;;;;;;;25.00;9.63;;;;;;;-3.02;100.00;96962.81;5036785;28;20214;-67
2024/01/10 05:25:10;;;;;;;27.53;9.63;;;;;;;-3.07;100.00;96956.19;5037259;28;20216;-67
2024/01/10 05:27:36;;;;;;;28.00;10.30;;;;;;;-3.11;100.00;96964.19;5037008;28;20205;-67
2024/01/10 05:30:03;;;;;;;23.57;8.67;;;;;;;-2.94;100.00;96957.22;5035542;28;20723;-67
2024/01/10 05:32:29;;;;;;;33.13;11.37;;;;;;;-2.93;100.00;96956.31;5036797;28;20233;-67
2024/01/10 05:34:57;;;;;;;23.43;10.07;;;;;;;-2.90;100.00;96958.75;5036188;28;20613;-67
2024/01/10 05:37:23;;;;;;;30.57;10.93;;;;;;;-2.96;100.00;96959.06;5035971;28;20680;-67
2024/01/10 05:39:50;;;;;;;20.50;8.60;;;;;;;-2.96;100.00;96966.81;5036179;28;20206;-67
2024/01/10 05:42:16;;;;;;;26.93;10.07;;;;;;;-3.08;100.00;96964.84;5036914;28;20280;-67
2024/01/10 05:44:43;;;;;;;31.43;11.10;;;;;;;-3.01;100.00;96963.63;5035851;28;20266;-67
2024/01/10 05:47:09;;;;;;;22.53;10.00;;;;;;;-3.06;100.00;96962.19;5035348;28;20205;-67
2024/01/10 05:49:36;;;;;;;30.60;10.43;;;;;;;-3.06;100.00;96968.19;5036655;28;20400;-67
2024/01/10 05:52:04;;;;;;;26.83;10.23;;;;;;;-3.06;100.00;96959.63;5035618;28;20213;-67
2024/01/10 05:54:30;;;;;;;27.87;10.17;;;;;;;-3.04;100.00;96963.78;5035739;28;20210;-67
2024/01/10 05:56:57;;;;;;;34.67;12.43;;;;;;;-3.02;100.00;96965.38;5036131;28;20201;-67
2024/01/10 05:59:23;;;;;;;34.87;11.37;;;;;;;-2.99;100.00;96969.53;5036622;28;20236;-67
2024/01/10 06:01:50;;;;;;;26.37;9.97;;;;;;;-3.05;100.00;96972.44;5035665;28;20583;-67
2024/01/10 06:04:16;;;;;;;31.90;11.13;;;;;;;-3.09;100.00;96973.50;5035483;28;20204;-67
2024/01/10 06:06:45;;;;;;;27.73;9.10;;;;;;;-3.09;100.00;96975.22;5036156;28;20351;-67
2024/01/10 06:09:12;;;;;;;28.13;11.43;;;;;;;-2.94;100.00;96973.53;5035796;28;20197;-67
2024/01/10 06:11:42;;;;;;;29.17;10.30;;;;;;;-2.97;100.00;96972.84;5036355;28;20206;-67
2024/01/10 06:14:08;;;;;;;30.00;11.80;;;;;;;-3.01;100.00;96976.50;5035315;28;20624;-67
2024/01/10 06:16:35;;;;;;;26.27;11.03;;;;;;;-2.93;100.00;96979.53;5036001;28;20630;-67
2024/01/10 06:19:01;;;;;;;35.77;12.50;;;;;;;-2.98;100.00;96978.91;5035861;28;20235;-68
2024/01/10 06:21:28;;;;;;;28.57;11.03;;;;;;;-3.02;100.00;96978.25;5035735;28;20216;-67
2024/01/10 06:23:54;;;;;;;30.30;11.53;;;;;;;-3.07;100.00;96978.56;5035783;28;20202;-67
2024/01/10 06:26:22;;;;;;;29.60;12.00;;;;;;;-2.91;100.00;96975.94;5035577;28;20233;-67
2024/01/10 06:28:49;;;;;;;28.30;11.23;;;;;;;-2.89;100.00;96975.88;5035593;28;20299;-67
2024/01/10 06:31:15;;;;;;;30.77;11.63;;;;;;;-2.93;100.00;96976.94;5035847;28;20224;-67
2024/01/10 06:33:42;;;;;;;29.87;10.47;;;;;;;-2.91;100.00;96985.44;5036119;28;20707;-67
2024/01/10 06:36:08;;;;;;;32.97;11.10;;;;;;;-2.87;100.00;96984.38;5034880;28;20813;-67
2024/01/10 06:38:35;;;;;;;28.70;10.97;;;;;;;-2.86;100.00;96980.88;5040651;28;20231;-67
2024/01/10 06:41:01;;;;;;;31.50;11.30;;;;;;;-2.95;100.00;96987.34;5041191;28;20212;-67
2024/01/10 06:43:29;;;;;;;32.43;11.43;;;;;;;-2.91;100.00;96981.13;5041276;28;20230;-67
2024/01/10 06:45:56;;;;;;;38.30;11.57;;;;;;;-2.85;100.00;96982.53;5040820;28;20233;-68
2024/01/10 06:48:22;;;;;;;30.43;11.57;;;;;;;-2.94;100.00;96977.84;5040155;28;20205;-67
2024/01/10 06:50:49;;;;;;;35.23;13.10;;;;;;;-2.84;100.00;96985.06;5039512;28;20213;-68
2024/01/10 06:53:15;;;;;;;29.00;10.50;;;;;;;-2.79;100.00;96983.06;5039491;28;20676;-68
2024/01/10 06:55:42;;;;;;;37.83;12.50;;;;;;;-2.94;100.00;96993.31;5038950;28;20745;-67
2024/01/10 06:58:08;;;;;;;43.97;12.43;;;;;;;-2.73;100.00;96992.22;5038785;28;21363;-67
2024/01/10 07:00:38;;;;;;;32.37;11.27;;;;;;;-2.47;100.00;96992.50;5039894;28;20209;-67
2024/01/10 07:03:04;;;;;;;36.20;12.87;;;;;;;-2.57;100.00;96996.53;5039281;28;20661;-67
2024/01/10 07:05:31;;;;;;;31.20;10.13;;;;;;;-2.60;100.00;96988.09;5038380;28;20220;-68
2024/01/10 07:07:58;;;;;;;36.70;13.17;;;;;;;-2.52;100.00;96991.97;5038886;28;21080;-68
2024/01/10 07:10:27;;;;;;;30.63;11.93;;;;;;;-2.40;100.00;96986.97;5039497;28;20485;-68
2024/01/10 07:12:54;;;;;;;38.57;11.73;;;;;;;-2.41;100.00;96993.06;5039317;28;20209;-67
2024/01/10 07:15:20;;;;;;;27.43;11.20;;;;;;;-2.39;100.00;96998.94;5038846;28;20229;-68
2024/01/10 07:17:48;;;;;;;22.40;9.07;;;;;;;-2.25;100.00;96991.31;5039326;28;20444;-68
2024/01/10 07:20:15;;;;;;;26.77;10.33;;;;;;;-2.38;100.00;97000.63;5038257;28;20222;-68
2024/01/10 07:22:43;;;;;;;23.63;10.37;;;;;;;-2.41;100.00;96999.94;5039224;28;20214;-67
2024/01/10 07:25:13;;;;;;;28.67;9.97;;;;;;;-2.41;100.00;97005.09;5038124;28;20672;-67
2024/01/10 07:27:40;;;;;;;26.47;9.87;;;;;;;-2.38;100.00;97005.78;5039516;28;20216;-68
2024/01/10 07:30:13;;;;;;;27.23;9.40;;;;;;;-2.34;100.00;97002.13;5038789;28;21000;-67
2024/01/10 07:32:40;;;;;;;29.50;9.17;;;;;;;-2.45;100.00;97001.03;5039520;28;20216;-67
2024/01/10 07:35:09;;;;;;;31.77;11.13;;;;;;;-2.18;100.00;97010.69;5038580;28;20230;-68
2024/01/10 07:37:36;;;;;;;32.17;10.17;;;;;;;-2.37;100.00;97015.19;5038282;28;20229;-67
2024/01/10 07:40:04;;;;;;;23.67;9.67;;;;;;;-2.49;100.00;97016.75;5039183;28;20730;-67
2024/01/10 07:42:31;;;;;;;26.57;9.83;;;;;;;-2.45;100.00;97013.09;5037437;28;20237;-67
2024/01/10 07:44:57;;;;;;;33.10;10.53;;;;;;;-2.32;100.00;97026.13;5035181;28;20596;-67
2024/01/10 07:47:24;;;;;;;26.13;9.37;;;;;;;-2.21;100.00;97023.78;5036132;28;20211;-67
2024/01/10 07:49:51;;;;;;;27.00;10.07;;;;;;;-2.21;100.00;97036.69;5036321;28;20194;-67
2024/01/10 07:52:19;;;;;;;31.20;11.13;;;;;;;-2.04;100.00;97033.22;5037468;28;20317;-67
2024/01/10 07:54:45;;;;;;;29.53;10.40;;;;;;;-2.15;100.00;97044.13;5036405;28;20202;-67
2024/01/10 07:57:12;;;;;;;31.13;12.10;;;;;;;-2.13;100.00;97036.28;5036871;28;20198;-67
2024/01/10 07:59:38;;;;;;;31.17;11.63;;;;;;;-2.11;100.00;97045.63;5036483;28;20612;-67
2024/01/10 08:02:05;;;;;;;23.80;10.07;;;;;;;-2.06;100.00;97033.28;5036780;28;20770;-67
2024/01/10 08:04:31;;;;;;;31.80;11.50;;;;;;;-2.06;100.00;97035.03;5035597;28;20218;-67
2024/01/10 08:06:58;;;;;;;25.63;9.20;;;;;;;-1.99;100.00;97037.19;5037380;28;20217;-67
2024/01/10 08:09:27;;;;;;;24.67;9.73;;;;;;;-2.06;100.00;97033.28;5036695;28;20214;-67
2024/01/10 08:11:53;;;;;;;28.63;10.27;;;;;;;-2.27;100.00;97036.19;5031831;28;20646;-67
2024/01/10 08:14:20;;;;;;;33.27;9.87;;;;;;;-2.28;100.00;97050.00;5035901;28;20210;-67
2024/01/10 08:16:46;;;;;;;25.97;10.20;;;;;;;-2.06;100.00;97053.94;5035253;28;20227;-67
2024/01/10 08:19:13;;;;;;;21.73;9.10;;;;;;;-2.11;100.00;97050.78;5035718;28;20230;-67
2024/01/10 08:21:39;;;;;;;31.00;10.67;;;;;;;-2.15;100.00;97048.41;5033981;28;20210;-67
2024/01/10 08:24:07;;;;;;;25.17;8.87;;;;;;;-2.07;100.00;97044.53;5035682;28;20211;-67
2024/01/10 08:26:35;;;;;;;30.13;10.80;;;;;;;-1.97;100.00;97050.88;5034031;28;21084;-67
2024/01/10 08:29:01;;;;;;;28.80;11.40;;;;;;;-2.05;100.00;97054.78;5034869;28;20750;-67
2024/01/10 08:31:29;;;;;;;28.13;9.97;;;;;;;-2.14;100.00;97056.13;5034244;28;20213;-67
2024/01/10 08:33:56;;;;;;;38.40;12.20;;;;;;;-2.26;100.00;97061.91;5034667;28;20218;-67
2024/01/10 08:36:24;;;;;;;23.10;9.13;;;;;;;-2.07;100.00;97054.84;5034441;28;20225;-67
2024/01/10 08:38:50;;;;;;;24.43;10.00;;;;;;;-1.99;100.00;97065.59;5034716;28;20221;-67
2024/01/10 08:41:19;;;;;;;30.87;11.10;;;;;;;-1.98;100.00;97067.28;5033877;28;20193;-67
2024/01/10 08:43:47;;;;;;;34.60;11.97;;;;;;;-1.82;100.00;97073.28;5032823;28;20207;-66
2024/01/10 08:46:13;;;;;;;29.43;10.37;;;;;;;-1.86;100.00;97066.59;5034659;28;20225;-67
2024/01/10 08:48:40;;;;;;;26.07;10.13;;;;;;;-1.69;100.00;97059.63;5033092;28;20207;-67
2024/01/10 08:51:09;;;;;;;28.70;8.80;;;;;;;-1.86;100.00;97065.78;5033368;28;20210;-67
2024/01/10 08:53:36;;;;;;;31.67;10.80;;;;;;;-1.76;100.00;97070.38;5033361;28;20209;-67
2024/01/10 08:56:02;;;;;;;27.50;10.73;;;;;;;-1.68;100.00;97070.78;5034463;28;20225;-67
2024/01/10 08:58:29;;;;;;;26.37;10.27;;;;;;;-2.00;100.00;97082.00;5033408;28;20208;-67
2024/01/10 09:00:56;;;;;;;32.83;10.77;;;;;;;-1.60;100.00;97077.19;5032595;28;20207;-67
2024/01/10 09:03:23;;;;;;;30.50;10.97;;;;;;;-2.12;100.00;97090.41;5034286;28;20206;-67
2024/01/10 09:05:50;;;;;;;29.27;10.27;;;;;;;-1.84;100.00;97085.44;5032547;28;20225;-67
2024/01/10 09:08:17;;;;;;;30.57;12.50;;;;;;;-1.65;100.00;97086.13;5032408;28;20197;-66
2024/01/10 09:10:43;;;;;;;31.00;10.53;;;;;;;-1.66;100.00;97089.63;5033450;28;20213;-67
2024/01/10 09:13:10;;;;;;;25.70;10.50;;;;;;;-1.52;100.00;97092.28;5032448;28;20219;-67
2024/01/10 09:15:36;;;;;;;34.63;10.03;;;;;;;-1.57;100.00;97092.53;5034269;28;20232;-67
2024/01/10 09:18:04;;;;;;;29.73;9.63;;;;;;;-1.61;100.00;97101.38;5035322;28;20198;-67
2024/01/10 09:20:31;;;;;;;20.10;9.67;;;;;;;-1.56;100.00;97093.38;5035742;28;20604;-67
2024/01/10 09:22:59;;;;;;;26.00;9.63;;;;;;;-1.49;100.00;97092.97;5035097;28;20929;-67
2024/01/10 09:25:26;;;;;;;24.60;10.10;;;;;;;-1.37;100.00;97099.22;5035189;28;20521;-67
2024/01/10 09:27:52;;;;;;;33.73;11.00;;;;;;;-1.20;100.00;97094.75;5035155;28;20215;-67
2024/01/10 09:30:19;;;;;;;30.57;10.17;;;;;;;-1.03;100.00;97098.06;5035302;28;20197;-67
2024/01/10 09:32:47;;;;;;;24.33;9.77;;;;;;;-1.26;100.00;97102.00;5035629;28;20238;-67
2024/01/10 09:35:15;;;;;;;25.93;10.33;;;;;;;-0.92;100.00;97095.69;5035372;28;20223;-67
2024/01/10 09:37:42;;;;;;;23.13;8.87;;;;;;;-0.90;100.00;97098.19;5034134;28;20658;-67
2024/01/10 09:40:10;;;;;;;34.83;10.90;;;;;;;-0.64;100.00;97103.53;5035479;28;20927;-67
2024/01/10 09:42:37;;;;;;;23.57;8.13;;;;;;;-0.15;100.00;97099.69;5032917;28;20206;-68
2024/01/10 09:45:06;;;;;;;29.57;7.80;;;;;;;0.99;100.00;97102.75;5034036;28;20838;-68
2024/01/10 09:47:33;;;;;;;24.13;8.93;;;;;;;1.00;100.00;97094.03;5034767;28;20213;-67
2024/01/10 09:50:02;;;;;;;32.93;10.83;;;;;;;0.30;100.00;97103.75;5033938;28;20264;-67
2024/01/10 09:52:30;;;;;;;34.67;13.27;;;;;;;0.08;100.00;97102.59;5035108;28;20239;-67
2024/01/10 09:54:58;;;;;;;29.83;9.70;;;;;;;0.21;100.00;97114.69;5033130;28;20228;-67
2024/01/10 09:57:25;;;;;;;28.43;9.37;;;;;;;0.02;100.00;97108.97;5031901;28;20213;-67
2024/01/10 09:59:52;;;;;;;25.50;9.03;;;;;;;-0.01;100.00;97109.16;5032384;28;20230;-67
2024/01/10 10:02:20;;;;;;;24.53;10.43;;;;;;;-0.21;100.00;97107.88;5032410;28;20800;-66
2024/01/10 10:04:54;;;;;;;24.80;8.80;;;;;;;-0.58;100.00;97105.75;5033004;28;20223;-67
2024/01/10 10:07:21;;;;;;;26.83;9.43;;;;;;;-0.70;100.00;97101.31;5031948;28;21294;-67
2024/01/10 10:09:49;;;;;;;31.63;10.23;;;;;;;-0.59;100.00;97106.69;5033053;28;20208;-67
2024/01/10 10:12:15;;;;;;;25.37;8.97;;;;;;;-0.65;100.00;97099.25;5032759;28;20586;-67
2024/01/10 10:14:42;;;;;;;27.30;9.70;;;;;;;-0.83;100.00;97100.31;5034338;28;20242;-67
2024/01/10 10:17:16;;;;;;;21.87;9.43;;;;;;;-0.61;100.00;97095.59;5033400;28;20496;-67
2024/01/10 10:19:42;;;;;;;28.00;10.43;;;;;;;-1.36;100.00;97103.44;5034532;28;20375;-67
2024/01/10 10:22:10;;;;;;;23.23;8.87;;;;;;;-1.15;100.00;97096.16;5033963;28;20703;-67
2024/01/10 10:24:36;;;;;;;27.17;10.10;;;;;;;-0.99;100.00;97099.56;5034161;28;20670;-67
2024/01/10 10:27:09;;;;;;;31.83;11.30;;;;;;;-0.42;100.00;97103.94;5033165;28;20689;-67
2024/01/10 10:29:36;;;;;;;26.60;11.13;;;;;;;-0.36;100.00;97096.63;5034982;28;20226;-67
2024/01/10 10:32:03;;;;;;;30.87;10.07;;;;;;;-0.34;100.00;97101.75;5034012;28;20243;-67
2024/01/10 10:34:32;;;;;;;33.27;10.30;;;;;;;-0.19;100.00;97100.81;5033670;28;20303;-67
2024/01/10 10:36:58;;;;;;;31.43;10.57;;;;;;;-0.29;100.00;97100.53;5033477;28;20207;-67
2024/01/10 10:39:25;;;;;;;28.30;9.93;;;;;;;0.01;100.00;97103.88;5035001;28;20504;-67
2024/01/10 10:41:54;;;;;;;24.50;8.93;;;;;;;-0.13;100.00;97092.69;5035548;28;20209;-67
2024/01/10 10:44:24;;;;;;;31.40;11.03;;;;;;;0.16;100.00;97101.19;5034884;28;20568;-67
2024/01/10 10:46:54;;;;;;;26.60;10.30;;;;;;;0.34;100.00;97094.03;5035714;28;20227;-67
2024/01/10 10:49:30;;;;;;;31.23;10.93;;;;;;;0.43;100.00;97094.28;5032784;28;20626;-67
2024/01/10 10:51:58;;;;;;;37.87;13.73;;;;;;;0.46;100.00;97099.31;5035056;28;20204;-67
2024/01/10 10:54:28;;;;;;;31.67;13.43;;;;;;;0.55;100.00;97087.50;5034404;28;20239;-67
2024/01/10 10:56:56;;;;;;;29.03;11.00;;;;;;;0.10;100.00;97091.22;5033981;28;20232;-67
2024/01/10 10:59:27;;;;;;;28.77;9.97;;;;;;;0.54;100.00;97091.88;5034010;28;20695;-67
2024/01/10 11:01:55;;;;;;;26.93;10.07;;;;;;;0.47;100.00;97089.75;5034612;28;20588;-67
2024/01/10 11:04:22;;;;;;;29.70;9.30;;;;;;;0.55;100.00;97090.97;5034999;28;20201;-67
2024/01/10 11:06:49;;;;;;;30.00;10.23;;;;;;;0.36;100.00;97087.84;5034926;28;20228;-67
2024/01/10 11:09:22;;;;;;;33.13;11.07;;;;;;;0.34;100.00;97089.69;5036113;28;20207;-67
2024/01/10 11:12:15;;;;;;;41.90;11.20;;;;;;;0.45;100.00;97076.91;5035064;28;20213;-67